createdAt,value
2019-03-12T00:01:27.771Z,81.14
2019-03-12T00:03:57.635Z,81.33
2019-03-12T00:06:27.441Z,81.39
2019-03-12T00:08:57.307Z,81.39
2019-03-12T00:11:27.094Z,81.44
2019-03-12T00:13:56.864Z,81.43
2019-03-12T00:16:26.628Z,81.19
2019-03-12T00:18:56.409Z,81.30
2019-03-12T00:21:26.152Z,81.26
2019-03-12T00:23:55.949Z,81.64
2019-03-12T00:26:25.714Z,81.34
2019-03-12T00:28:55.475Z,81.50
2019-03-12T00:31:25.246Z,81.10
2019-03-12T00:33:55.020Z,81.25
2019-03-12T00:36:24.794Z,81.20
2019-03-12T00:38:54.597Z,81.22
2019-03-12T00:41:24.365Z,81.07
2019-03-12T00:43:54.141Z,80.94
2019-03-12T00:46:26.993Z,81.20
2019-03-12T00:48:55.366Z,81.35
2019-03-12T00:51:25.150Z,81.05
2019-03-12T00:53:54.947Z,81.26
2019-03-12T00:56:24.710Z,81.32
2019-03-12T00:58:54.517Z,81.29
2019-03-12T01:01:24.290Z,81.08
2019-03-12T01:03:54.052Z,81.08
2019-03-12T01:06:23.817Z,80.91
2019-03-12T01:08:53.550Z,81.06
2019-03-12T01:11:23.327Z,81.13
2019-03-12T01:13:53.071Z,81.16
2019-03-12T01:16:22.834Z,81.15
2019-03-12T01:18:52.777Z,81.21
2019-03-12T01:21:22.557Z,81.15
2019-03-12T01:23:52.309Z,81.26
2019-03-12T01:26:22.063Z,81.34
2019-03-12T01:28:51.810Z,81.63
2019-03-12T01:31:21.582Z,81.41
2019-03-12T01:33:51.320Z,81.44
2019-03-12T01:36:21.087Z,81.15
2019-03-12T01:38:50.819Z,80.71
2019-03-12T01:41:20.586Z,80.95
2019-03-12T01:43:50.336Z,80.86
2019-03-12T01:46:20.112Z,80.60
2019-03-12T01:48:49.844Z,80.02
2019-03-12T01:51:19.594Z,79.36
2019-03-12T01:53:49.338Z,79.39
2019-03-12T01:56:19.095Z,78.55
2019-03-12T01:58:48.823Z,79.06
2019-03-12T02:01:18.666Z,78.81
2019-03-12T02:03:48.481Z,78.52
2019-03-12T02:06:18.243Z,77.51
2019-03-12T02:08:47.982Z,78.19
2019-03-12T02:11:17.754Z,77.51
2019-03-12T02:13:47.524Z,77.22
2019-03-12T02:16:17.297Z,77.70
2019-03-12T02:18:47.056Z,77.62
2019-03-12T02:21:16.814Z,77.26
2019-03-12T02:23:46.577Z,77.23
2019-03-12T02:26:16.343Z,77.95
2019-03-12T02:28:46.102Z,77.46
2019-03-12T02:31:15.869Z,77.92
2019-03-12T02:33:45.658Z,76.84
2019-03-12T02:36:16.603Z,76.45
2019-03-12T02:38:46.371Z,76.50
2019-03-12T02:41:16.128Z,76.41
2019-03-12T02:43:45.898Z,76.86
2019-03-12T02:46:15.667Z,77.10
2019-03-12T02:48:45.426Z,77.89
2019-03-12T02:51:15.198Z,77.38
2019-03-12T02:53:44.970Z,77.84
2019-03-12T02:56:14.736Z,78.21
2019-03-12T02:58:44.520Z,78.32
2019-03-12T03:01:14.302Z,77.75
2019-03-12T03:03:44.050Z,77.54
2019-03-12T03:06:24.458Z,76.93
2019-03-12T03:08:54.219Z,77.55
2019-03-12T03:11:24.026Z,77.91
2019-03-12T03:13:53.800Z,78.43
2019-03-12T03:16:24.340Z,78.24
2019-03-12T03:18:54.409Z,78.32
2019-03-12T03:21:24.580Z,78.12
2019-03-12T03:23:54.349Z,77.99
2019-03-12T03:26:24.096Z,77.98
2019-03-12T03:28:53.854Z,78.33
2019-03-12T03:31:23.607Z,78.82
2019-03-12T03:33:53.366Z,79.06
2019-03-12T03:36:23.113Z,79.01
2019-03-12T03:38:52.868Z,78.74
2019-03-12T03:41:22.617Z,78.81
2019-03-12T03:43:52.372Z,79.04
2019-03-12T03:46:22.122Z,79.08
2019-03-12T03:48:51.893Z,79.22
2019-03-12T03:51:21.628Z,79.23
2019-03-12T03:53:51.392Z,79.51
2019-03-12T03:56:21.146Z,79.42
2019-03-12T03:58:51.394Z,79.76
2019-03-12T04:01:21.125Z,79.81
2019-03-12T04:03:50.886Z,79.90
2019-03-12T04:06:20.629Z,79.96
2019-03-12T04:08:50.400Z,80.08
2019-03-12T04:11:20.147Z,79.85
2019-03-12T04:13:49.915Z,80.25
2019-03-12T04:16:19.659Z,79.83
2019-03-12T04:18:49.445Z,79.75
2019-03-12T04:21:19.182Z,79.76
2019-03-12T04:23:49.066Z,79.85
2019-03-12T04:26:18.803Z,79.86
2019-03-12T04:28:48.568Z,79.60
2019-03-12T04:31:18.335Z,79.45
2019-03-12T04:34:00.089Z,79.82
2019-03-12T04:36:29.860Z,79.64
2019-03-12T04:38:59.748Z,79.40
2019-03-12T04:41:29.527Z,79.52
2019-03-12T04:43:59.314Z,79.04
2019-03-12T04:46:29.073Z,79.18
2019-03-12T04:48:58.862Z,79.49
2019-03-12T04:51:28.646Z,79.67
2019-03-12T04:53:58.431Z,79.89
2019-03-12T04:56:28.199Z,79.43
2019-03-12T04:58:57.939Z,79.73
2019-03-12T05:01:27.708Z,79.85
2019-03-12T05:03:57.445Z,79.96
2019-03-12T05:06:27.248Z,79.53
2019-03-12T05:08:56.984Z,79.72
2019-03-12T05:11:26.781Z,79.46
2019-03-12T05:14:28.028Z,79.47
2019-03-12T05:17:00.929Z,79.42
2019-03-12T05:19:30.702Z,79.83
2019-03-12T05:22:00.450Z,79.83
2019-03-12T05:24:30.216Z,79.59
2019-03-12T05:27:00.040Z,79.60
2019-03-12T05:29:29.992Z,79.74
2019-03-12T05:31:59.726Z,79.70
2019-03-12T05:34:29.507Z,79.43
2019-03-12T05:36:59.245Z,79.49
2019-03-12T05:39:29.009Z,79.57
2019-03-12T05:41:58.749Z,79.44
2019-03-12T05:44:28.541Z,79.45
2019-03-12T05:46:58.372Z,79.40
2019-03-12T05:49:28.142Z,79.34
2019-03-12T05:51:57.891Z,79.30
2019-03-12T05:54:27.665Z,79.49
2019-03-12T05:56:57.398Z,79.35
2019-03-12T05:59:27.177Z,79.52
2019-03-12T06:01:56.909Z,79.19
2019-03-12T06:04:26.780Z,78.83
2019-03-12T06:06:56.527Z,79.17
2019-03-12T06:09:30.411Z,78.46
2019-03-12T06:11:57.728Z,78.45
2019-03-12T06:14:27.503Z,77.78
2019-03-12T06:16:57.247Z,77.63
2019-03-12T06:19:27.012Z,77.87
2019-03-12T06:21:56.754Z,77.36
2019-03-12T06:24:26.533Z,77.50
2019-03-12T06:26:56.279Z,77.63
2019-03-12T06:29:26.053Z,77.23
2019-03-12T06:31:57.366Z,77.62
2019-03-12T06:34:28.710Z,77.35
2019-03-12T06:37:03.511Z,77.30
2019-03-12T06:39:37.850Z,76.88
2019-03-12T06:42:15.262Z,76.89
2019-03-12T06:44:52.491Z,76.85
2019-03-12T06:47:26.529Z,76.65
2019-03-12T06:50:03.919Z,76.35
2019-03-12T06:52:35.234Z,76.74
2019-03-12T06:55:26.720Z,77.29
2019-03-12T06:58:20.408Z,77.38
2019-03-12T07:00:54.878Z,76.77
2019-03-12T07:03:26.477Z,76.51
2019-03-12T07:06:03.846Z,76.97
2019-03-12T07:08:53.577Z,75.63
2019-03-12T07:11:36.967Z,76.28
2019-03-12T07:14:14.607Z,76.83
2019-03-12T07:16:45.942Z,76.31
2019-03-12T07:19:17.292Z,75.94
2019-03-12T07:21:57.676Z,75.31
2019-03-12T07:24:31.993Z,76.07
2019-03-12T07:27:09.073Z,75.89
2019-03-12T07:29:43.569Z,76.20
2019-03-12T07:32:30.074Z,76.79
2019-03-12T07:35:01.431Z,76.68
2019-03-12T07:37:32.772Z,76.37
2019-03-12T07:40:06.838Z,76.02
2019-03-12T07:42:54.356Z,76.28
2019-03-12T07:45:25.700Z,76.09
2019-03-12T07:47:57.044Z,75.83
2019-03-12T07:50:46.531Z,75.40
2019-03-12T07:53:23.853Z,73.30
2019-03-12T07:56:07.410Z,74.68
2019-03-12T07:58:41.806Z,74.28
2019-03-12T08:01:13.442Z,74.31
2019-03-12T08:03:44.787Z,73.40
2019-03-12T08:06:25.306Z,72.93
2019-03-12T08:09:02.458Z,73.12
2019-03-12T08:11:36.791Z,73.12
2019-03-12T08:14:26.889Z,73.69
2019-03-12T08:17:00.453Z,73.89
2019-03-12T08:19:43.820Z,73.83
2019-03-12T08:22:21.188Z,73.70
2019-03-12T08:25:01.507Z,73.86
2019-03-12T08:27:32.847Z,74.65
2019-03-12T08:30:20.396Z,74.92
2019-03-12T08:32:51.748Z,75.00
2019-03-12T08:35:35.131Z,75.01
2019-03-12T08:38:15.511Z,74.84
2019-03-12T08:40:52.650Z,75.05
2019-03-12T08:43:38.194Z,74.98
2019-03-12T08:46:27.926Z,74.33
2019-03-12T08:49:05.384Z,75.00
2019-03-12T08:51:48.907Z,74.51
2019-03-12T08:54:23.278Z,72.87
2019-03-12T08:56:57.625Z,73.30
2019-03-12T08:59:38.338Z,73.12
2019-03-12T09:02:27.738Z,73.09
2019-03-12T09:05:01.813Z,72.18
2019-03-12T09:07:48.214Z,72.48
2019-03-12T09:10:22.173Z,71.66
2019-03-12T09:12:53.523Z,71.38
2019-03-12T09:15:27.596Z,71.57
2019-03-12T09:17:58.931Z,71.41
2019-03-12T09:20:36.290Z,70.82
2019-03-12T09:23:07.626Z,71.33
2019-03-12T09:25:38.969Z,71.74
2019-03-12T09:28:25.543Z,71.93
2019-03-12T09:31:09.445Z,72.11
2019-03-12T09:33:59.073Z,72.05
2019-03-12T09:36:45.427Z,71.55
2019-03-12T09:39:16.875Z,71.38
2019-03-12T09:41:58.001Z,71.38
2019-03-12T09:44:34.971Z,70.93
2019-03-12T09:47:06.328Z,70.77
2019-03-12T09:49:43.489Z,69.75
2019-03-12T09:52:20.758Z,70.12
2019-03-12T09:54:52.099Z,69.76
2019-03-12T09:57:26.026Z,69.13
2019-03-12T09:59:57.379Z,68.26
2019-03-12T10:02:34.589Z,68.55
2019-03-12T10:05:10.337Z,68.93
2019-03-12T10:07:58.151Z,68.41
2019-03-12T10:10:46.002Z,67.21
2019-03-12T10:13:32.456Z,68.28
2019-03-12T10:16:03.802Z,68.05
2019-03-12T10:18:41.034Z,66.01
2019-03-12T10:21:12.378Z,65.56
2019-03-12T10:23:46.907Z,64.97
2019-03-12T10:26:18.241Z,66.41
2019-03-12T10:29:07.685Z,64.65
2019-03-12T10:31:55.240Z,65.61
2019-03-12T10:34:30.197Z,65.29
2019-03-12T10:37:12.445Z,65.50
2019-03-12T10:39:46.671Z,65.13
2019-03-12T10:42:33.388Z,65.71
2019-03-12T10:45:11.000Z,65.33
2019-03-12T10:47:45.490Z,64.89
2019-03-12T10:50:15.254Z,65.28
2019-03-12T10:52:45.055Z,64.49
2019-03-12T10:55:14.829Z,65.10
2019-03-12T10:57:44.592Z,64.39
2019-03-12T11:00:15.767Z,64.02
2019-03-12T11:02:45.511Z,63.61
2019-03-12T11:05:15.370Z,63.29
2019-03-12T11:07:45.104Z,63.19
2019-03-12T11:10:16.444Z,61.08
2019-03-12T11:12:46.227Z,61.99
2019-03-12T11:15:16.408Z,61.42
2019-03-12T11:17:50.055Z,60.39
2019-03-12T11:20:19.991Z,60.68
2019-03-12T11:22:49.728Z,59.04
2019-03-12T11:25:27.373Z,60.13
2019-03-12T11:27:50.937Z,59.29
2019-03-12T11:30:21.025Z,60.07
2019-03-12T11:32:50.761Z,61.46
2019-03-12T11:35:20.566Z,61.90
2019-03-12T11:37:50.338Z,62.51
2019-03-12T11:40:25.502Z,63.10
2019-03-12T11:42:55.547Z,63.09
2019-03-12T11:45:35.844Z,62.52
2019-03-12T11:47:56.891Z,62.34
2019-03-12T11:50:27.103Z,59.87
2019-03-12T11:52:59.296Z,58.38
2019-03-12T11:55:28.505Z,56.73
2019-03-12T11:57:58.289Z,56.59
2019-03-12T12:00:38.868Z,56.51
2019-03-12T12:03:08.714Z,56.94
2019-03-12T12:05:38.528Z,55.55
2019-03-12T12:08:08.272Z,57.02
2019-03-12T12:10:38.045Z,56.01
2019-03-12T12:13:07.810Z,55.96
2019-03-12T12:15:37.601Z,56.08
2019-03-12T12:18:07.378Z,56.42
2019-03-12T12:20:37.247Z,55.93
2019-03-12T12:23:07.010Z,55.79
2019-03-12T12:25:36.741Z,55.90
2019-03-12T12:28:06.524Z,57.11
2019-03-12T12:30:36.273Z,58.38
2019-03-12T12:33:06.040Z,58.52
2019-03-12T12:35:35.784Z,58.23
2019-03-12T12:38:05.593Z,59.10
2019-03-12T12:40:35.406Z,59.06
2019-03-12T12:43:05.248Z,58.27
2019-03-12T12:45:41.316Z,57.81
2019-03-12T12:48:11.136Z,58.59
2019-03-12T12:50:40.919Z,59.02
2019-03-12T12:53:10.712Z,58.92
2019-03-12T12:55:40.511Z,59.19
2019-03-12T12:58:10.291Z,58.68
2019-03-12T13:00:40.070Z,58.15
2019-03-12T13:03:09.806Z,58.27
2019-03-12T13:05:39.582Z,57.79
2019-03-12T13:08:09.328Z,57.47
2019-03-12T13:10:40.566Z,58.22
2019-03-12T13:13:10.300Z,56.41
2019-03-12T13:15:40.099Z,57.43
2019-03-12T13:18:10.056Z,56.78
2019-03-12T13:20:39.837Z,56.22
2019-03-12T13:23:09.653Z,56.41
2019-03-12T13:25:39.501Z,56.53
2019-03-12T13:28:09.278Z,56.00
2019-03-12T13:30:39.074Z,56.30
2019-03-12T13:33:08.942Z,55.38
2019-03-12T13:35:38.711Z,56.04
2019-03-12T13:38:08.484Z,56.68
2019-03-12T13:40:38.462Z,56.75
2019-03-12T13:43:08.379Z,55.83
2019-03-12T13:45:38.115Z,56.21
2019-03-12T13:48:07.920Z,56.23
2019-03-12T13:50:37.691Z,56.64
2019-03-12T13:53:09.327Z,56.90
2019-03-12T13:55:39.239Z,56.84
2019-03-12T13:58:09.011Z,57.11
2019-03-12T14:00:38.756Z,56.69
2019-03-12T14:03:08.528Z,56.47
2019-03-12T14:05:38.257Z,56.51
2019-03-12T14:08:08.025Z,56.39
2019-03-12T14:10:37.751Z,57.29
2019-03-12T14:13:07.547Z,57.18
2019-03-12T14:15:39.016Z,57.10
2019-03-12T14:18:08.770Z,57.24
2019-03-12T14:20:56.483Z,57.06
2019-03-12T14:23:28.951Z,57.45
2019-03-12T14:25:58.686Z,57.67
2019-03-12T14:28:28.457Z,57.53
2019-03-12T14:30:58.433Z,58.31
2019-03-12T14:33:28.238Z,58.24
2019-03-12T14:35:58.012Z,57.83
2019-03-12T14:38:27.791Z,57.27
2019-03-12T14:40:57.565Z,57.91
2019-03-12T14:43:27.309Z,57.95
2019-03-12T14:45:57.079Z,57.38
2019-03-12T14:48:37.753Z,58.11
2019-03-12T14:51:13.474Z,58.07
2019-03-12T14:53:45.720Z,58.73
2019-03-12T14:56:15.503Z,58.88
2019-03-12T14:58:45.840Z,58.65
2019-03-12T15:01:15.830Z,59.33
2019-03-12T15:03:45.597Z,58.54
2019-03-12T15:06:15.381Z,59.56
2019-03-12T15:08:44.688Z,59.90
2019-03-12T15:11:14.466Z,60.31
2019-03-12T15:13:44.247Z,60.75
2019-03-12T15:16:14.023Z,60.41
2019-03-12T15:18:44.291Z,60.29
2019-03-12T15:21:14.070Z,60.62
2019-03-12T15:23:43.847Z,60.16
2019-03-12T15:26:13.623Z,60.03
2019-03-12T15:28:43.395Z,60.99
2019-03-12T15:31:13.188Z,61.35
2019-03-12T15:33:42.959Z,62.38
2019-03-12T15:36:15.716Z,62.92
2019-03-12T15:38:46.557Z,62.77
2019-03-12T15:41:16.357Z,63.28
2019-03-12T15:43:46.198Z,63.42
2019-03-12T15:46:15.990Z,63.51
2019-03-12T15:48:45.761Z,63.88
2019-03-12T15:51:15.505Z,64.19
2019-03-12T15:53:45.274Z,63.94
2019-03-12T15:56:15.012Z,63.72
2019-03-12T15:58:44.793Z,64.01
2019-03-12T16:01:14.549Z,63.93
2019-03-12T16:03:44.348Z,64.02
2019-03-12T16:06:14.121Z,64.28
2019-03-12T16:08:43.889Z,63.87
2019-03-12T16:11:13.658Z,64.14
2019-03-12T16:13:43.435Z,63.86
2019-03-12T16:16:13.396Z,64.17
2019-03-12T16:18:43.177Z,64.25
2019-03-12T16:21:12.955Z,63.78
2019-03-12T16:23:42.722Z,64.15
2019-03-12T16:26:12.615Z,64.03
2019-03-12T16:28:42.756Z,64.73
2019-03-12T16:31:15.273Z,64.57
2019-03-12T16:33:45.489Z,65.08
2019-03-12T16:36:15.507Z,65.82
2019-03-12T16:38:46.849Z,65.84
2019-03-12T16:41:16.632Z,66.07
2019-03-12T16:43:46.556Z,66.37
2019-03-12T16:46:16.574Z,66.70
2019-03-12T16:48:46.853Z,66.45
2019-03-12T16:51:16.653Z,67.86
2019-03-12T16:53:46.620Z,67.09
2019-03-12T16:56:17.128Z,67.29
2019-03-12T16:58:47.525Z,67.77
2019-03-12T17:01:18.197Z,67.75
2019-03-12T17:03:50.820Z,68.24
2019-03-12T17:06:22.342Z,68.83
2019-03-12T17:08:53.813Z,68.31
2019-03-12T17:11:24.627Z,67.94
2019-03-12T17:13:54.802Z,68.11
2019-03-12T17:16:25.297Z,68.25
2019-03-12T17:18:55.835Z,68.04
2019-03-12T17:21:26.662Z,67.83
2019-03-12T17:23:58.414Z,68.36
2019-03-12T17:26:29.059Z,67.85
2019-03-12T17:28:59.949Z,68.03
2019-03-12T17:31:30.132Z,68.27
2019-03-12T17:34:00.024Z,67.93
2019-03-12T17:36:29.810Z,68.05
2019-03-12T17:38:59.659Z,67.93
2019-03-12T17:41:29.486Z,67.97
2019-03-12T17:43:59.365Z,68.11
2019-03-12T17:46:29.130Z,68.07
2019-03-12T17:48:58.882Z,68.32
2019-03-12T17:51:28.660Z,68.13
2019-03-12T17:53:58.403Z,68.23
2019-03-12T17:56:28.185Z,68.12
2019-03-12T17:58:57.935Z,68.32
2019-03-12T18:01:30.034Z,67.62
2019-03-12T18:03:59.447Z,67.80
2019-03-12T18:06:29.195Z,67.92
2019-03-12T18:08:58.937Z,67.76
2019-03-12T18:11:28.715Z,68.00
2019-03-12T18:13:58.482Z,67.98
2019-03-12T18:16:40.867Z,67.81
2019-03-12T18:19:07.743Z,68.18
2019-03-12T18:21:37.628Z,67.72
2019-03-12T18:24:07.488Z,67.65
2019-03-12T18:26:37.269Z,68.04
2019-03-12T18:29:07.046Z,67.77
2019-03-12T18:31:36.830Z,67.89
2019-03-12T18:34:06.896Z,67.88
2019-03-12T18:36:38.068Z,67.76
2019-03-12T18:39:07.942Z,67.89
2019-03-12T18:41:37.747Z,68.11
2019-03-12T18:44:07.532Z,68.04
2019-03-12T18:46:37.285Z,67.54
2019-03-12T18:49:07.067Z,67.88
2019-03-12T18:51:36.816Z,68.06
2019-03-12T18:54:06.598Z,67.87
2019-03-12T18:56:36.351Z,67.85
2019-03-12T18:59:06.116Z,68.09
2019-03-12T19:01:35.892Z,68.15
2019-03-12T19:04:05.684Z,67.86
2019-03-12T19:06:35.424Z,67.81
2019-03-12T19:09:06.333Z,67.13
2019-03-12T19:11:37.587Z,67.50
2019-03-12T19:14:07.660Z,67.02
2019-03-12T19:16:37.425Z,67.51
2019-03-12T19:19:07.255Z,66.45
2019-03-12T19:21:37.047Z,66.56
2019-03-12T19:24:06.836Z,66.23
2019-03-12T19:26:36.827Z,66.36
2019-03-12T19:29:07.762Z,65.53
2019-03-12T19:31:40.450Z,65.73
2019-03-12T19:34:11.314Z,65.19
2019-03-12T19:36:41.538Z,64.88
2019-03-12T19:39:14.322Z,64.57
2019-03-12T19:41:45.137Z,64.24
2019-03-12T19:44:16.393Z,63.70
2019-03-12T19:46:47.145Z,63.62
2019-03-12T19:49:18.775Z,63.16
2019-03-12T19:51:59.818Z,63.13
2019-03-12T19:54:43.644Z,62.84
2019-03-12T19:57:11.693Z,62.21
2019-03-12T19:59:42.356Z,62.30
2019-03-12T20:02:21.051Z,62.32
2019-03-12T20:04:52.359Z,62.03
2019-03-12T20:07:23.566Z,62.17
2019-03-12T20:09:56.191Z,62.13
2019-03-12T20:12:36.042Z,61.77
2019-03-12T20:15:27.647Z,61.98
2019-03-12T20:18:24.683Z,62.09
2019-03-12T20:21:29.232Z,61.85
2019-03-12T20:24:30.809Z,61.36
2019-03-12T20:27:27.443Z,62.23
2019-03-12T20:30:13.804Z,61.42
2019-03-12T20:32:54.103Z,61.43
2019-03-12T20:35:53.439Z,61.66
2019-03-12T20:38:43.907Z,61.69
2019-03-12T20:41:37.537Z,62.24
2019-03-12T20:44:27.024Z,63.41
2019-03-12T20:47:16.699Z,61.95
2019-03-12T20:49:58.641Z,61.43
2019-03-12T20:52:43.601Z,62.26
2019-03-12T20:55:28.682Z,62.46
2019-03-12T20:58:30.185Z,62.17
2019-03-12T21:01:15.663Z,62.32
2019-03-12T21:03:52.183Z,62.42
2019-03-12T21:06:42.742Z,62.40
2019-03-12T21:09:25.679Z,62.23
2019-03-12T21:12:19.834Z,62.15
2019-03-12T21:15:16.454Z,62.41
2019-03-12T21:17:53.448Z,62.72
2019-03-12T21:20:33.578Z,62.29
2019-03-12T21:23:26.371Z,62.17
2019-03-12T21:26:24.466Z,61.89
2019-03-12T21:29:04.336Z,62.17
2019-03-12T21:31:35.612Z,62.04
2019-03-12T21:34:08.097Z,62.13
2019-03-12T21:36:40.950Z,62.22
2019-03-12T21:39:12.108Z,62.44
2019-03-12T21:41:44.181Z,62.10
2019-03-12T21:44:14.875Z,62.21
2019-03-12T21:46:46.001Z,62.21
2019-03-12T21:49:17.357Z,62.00
2019-03-12T21:51:47.980Z,61.82
2019-03-12T21:54:19.416Z,61.98
2019-03-12T21:56:50.422Z,62.21
2019-03-12T21:59:21.946Z,61.88
2019-03-12T22:01:55.704Z,61.76
2019-03-12T22:04:26.400Z,61.74
2019-03-12T22:06:56.206Z,61.44
2019-03-12T22:09:26.398Z,61.62
2019-03-12T22:11:56.219Z,62.12
2019-03-12T22:14:26.022Z,61.78
2019-03-12T22:16:56.907Z,62.00
2019-03-12T22:19:28.005Z,61.62
2019-03-12T22:22:17.538Z,61.33
2019-03-12T22:24:48.580Z,61.59
2019-03-12T22:27:18.456Z,61.57
2019-03-12T22:29:48.216Z,61.71
2019-03-12T22:32:17.996Z,61.82
2019-03-12T22:34:47.760Z,61.72
2019-03-12T22:37:17.535Z,61.71
2019-03-12T22:39:47.346Z,61.13
2019-03-12T22:42:17.115Z,61.52
2019-03-12T22:44:46.998Z,61.76
2019-03-12T22:47:16.777Z,61.25
2019-03-12T22:49:46.505Z,61.23
2019-03-12T22:52:16.291Z,61.21
2019-03-12T22:54:46.023Z,61.04
2019-03-12T22:57:15.786Z,60.67
2019-03-12T22:59:45.553Z,61.10
2019-03-12T23:02:15.327Z,60.89
2019-03-12T23:04:45.105Z,60.81
2019-03-12T23:07:14.852Z,61.08
2019-03-12T23:09:44.620Z,60.41
2019-03-12T23:12:16.884Z,60.93
2019-03-12T23:14:45.860Z,60.73
2019-03-12T23:17:15.663Z,60.82
2019-03-12T23:19:45.531Z,60.62
2019-03-12T23:22:15.327Z,60.11
2019-03-12T23:24:45.124Z,60.56
2019-03-12T23:27:14.918Z,60.29
2019-03-12T23:29:44.684Z,60.82
2019-03-12T23:32:15.986Z,60.92
2019-03-12T23:34:45.754Z,60.76
2019-03-12T23:37:15.534Z,61.26
2019-03-12T23:39:45.305Z,61.57
2019-03-12T23:42:15.150Z,60.78
2019-03-12T23:44:47.954Z,61.02
2019-03-12T23:47:17.696Z,61.42
2019-03-12T23:49:47.474Z,61.14
2019-03-12T23:52:17.205Z,60.99
2019-03-12T23:54:46.970Z,61.28
2019-03-12T23:57:16.716Z,60.56
2019-03-12T23:59:46.492Z,60.71
